sensor_id;sensor_type;location;lat;lon;timestamp;pressure;altitude;pressure_sealevel;temperature;humidity
48027;BME280;50714;49.208;5.364;2022-12-07T00:04:56;99779.19;;;3.29;89.75
48027;BME280;50714;49.208;5.364;2022-12-07T00:14:56;99774.16;;;3.26;89.78
48027;BME280;50714;49.208;5.364;2022-12-07T00:24:56;99764.41;;;3.34;89.52
48027;BME280;50714;49.208;5.364;2022-12-07T00:34:57;99761.44;;;3.37;89.91
48027;BME280;50714;49.208;5.364;2022-12-07T00:44:57;99757.63;;;3.40;89.53
48027;BME280;50714;49.208;5.364;2022-12-07T00:54:57;99753.38;;;3.29;89.91
48027;BME280;50714;49.208;5.364;2022-12-07T01:04:58;99753.44;;;3.37;89.82
48027;BME280;50714;49.208;5.364;2022-12-07T01:14:58;99746.34;;;3.28;90.33
48027;BME280;50714;49.208;5.364;2022-12-07T01:24:58;99739.50;;;3.26;90.37
48027;BME280;50714;49.208;5.364;2022-12-07T01:34:59;99732.69;;;3.31;89.96
48027;BME280;50714;49.208;5.364;2022-12-07T01:55:18;99741.38;;;3.33;90.09
48027;BME280;50714;49.208;5.364;2022-12-07T02:05:22;99737.28;;;3.39;89.98
48027;BME280;50714;49.208;5.364;2022-12-07T02:15:29;99729.56;;;3.36;89.87
48027;BME280;50714;49.208;5.364;2022-12-07T02:46:17;99711.88;;;2.99;90.56
48027;BME280;50714;49.208;5.364;2022-12-07T02:56:34;99707.06;;;3.03;90.75
48027;BME280;50714;49.208;5.364;2022-12-07T03:06:49;99695.34;;;3.14;90.79
48027;BME280;50714;49.208;5.364;2022-12-07T03:16:58;99693.13;;;3.09;90.45
48027;BME280;50714;49.208;5.364;2022-12-07T03:27:07;99694.50;;;3.13;90.04
48027;BME280;50714;49.208;5.364;2022-12-07T03:37:18;99696.72;;;3.18;90.15
48027;BME280;50714;49.208;5.364;2022-12-07T03:47:30;99689.16;;;3.13;90.38
48027;BME280;50714;49.208;5.364;2022-12-07T03:57:34;99681.09;;;3.23;90.42
48027;BME280;50714;49.208;5.364;2022-12-07T04:07:35;99679.81;;;3.27;91.15
48027;BME280;50714;49.208;5.364;2022-12-07T04:17:35;99674.50;;;3.27;90.97
48027;BME280;50714;49.208;5.364;2022-12-07T04:27:36;99681.94;;;3.41;90.10
48027;BME280;50714;49.208;5.364;2022-12-07T04:37:36;99677.06;;;3.36;90.62
48027;BME280;50714;49.208;5.364;2022-12-07T04:47:39;99681.78;;;3.42;90.59
48027;BME280;50714;49.208;5.364;2022-12-07T04:57:39;99672.09;;;3.41;90.88
48027;BME280;50714;49.208;5.364;2022-12-07T05:07:39;99669.13;;;3.45;90.71
48027;BME280;50714;49.208;5.364;2022-12-07T05:17:40;99663.19;;;3.51;90.73
48027;BME280;50714;49.208;5.364;2022-12-07T05:27:41;99667.38;;;3.53;91.25
48027;BME280;50714;49.208;5.364;2022-12-07T05:37:41;99660.03;;;3.55;90.37
48027;BME280;50714;49.208;5.364;2022-12-07T05:47:41;99659.72;;;3.58;90.47
48027;BME280;50714;49.208;5.364;2022-12-07T05:57:42;99661.09;;;3.62;90.40
48027;BME280;50714;49.208;5.364;2022-12-07T06:08:02;99662.94;;;3.62;90.79
48027;BME280;50714;49.208;5.364;2022-12-07T06:18:03;99658.50;;;3.70;90.83
48027;BME280;50714;49.208;5.364;2022-12-07T06:28:03;99650.34;;;3.72;90.91
48027;BME280;50714;49.208;5.364;2022-12-07T06:38:04;99657.53;;;3.71;91.14
48027;BME280;50714;49.208;5.364;2022-12-07T06:48:04;99662.31;;;3.68;91.29
48027;BME280;50714;49.208;5.364;2022-12-07T06:58:04;99665.22;;;3.74;91.13
48027;BME280;50714;49.208;5.364;2022-12-07T07:08:05;99675.59;;;3.78;91.65
48027;BME280;50714;49.208;5.364;2022-12-07T07:18:05;99668.56;;;3.76;91.52
48027;BME280;50714;49.208;5.364;2022-12-07T07:28:06;99669.75;;;3.82;91.59
48027;BME280;50714;49.208;5.364;2022-12-07T07:38:06;99669.59;;;3.84;91.84
48027;BME280;50714;49.208;5.364;2022-12-07T07:48:07;99682.25;;;3.82;92.00
48027;BME280;50714;49.208;5.364;2022-12-07T07:58:07;99697.81;;;3.86;92.34
48027;BME280;50714;49.208;5.364;2022-12-07T08:08:08;99692.72;;;3.93;91.98
48027;BME280;50714;49.208;5.364;2022-12-07T08:18:08;99695.91;;;3.96;92.26
48027;BME280;50714;49.208;5.364;2022-12-07T08:28:09;99690.09;;;4.01;92.23
48027;BME280;50714;49.208;5.364;2022-12-07T08:38:09;99704.94;;;4.03;92.10
48027;BME280;50714;49.208;5.364;2022-12-07T08:48:12;99702.28;;;4.03;92.40
48027;BME280;50714;49.208;5.364;2022-12-07T08:58:13;99705.31;;;4.08;91.75
48027;BME280;50714;49.208;5.364;2022-12-07T09:08:14;99712.41;;;4.18;91.73
48027;BME280;50714;49.208;5.364;2022-12-07T09:18:14;99714.69;;;4.13;91.37
48027;BME280;50714;49.208;5.364;2022-12-07T09:28:15;99721.03;;;4.11;91.53
48027;BME280;50714;49.208;5.364;2022-12-07T09:38:16;99722.25;;;4.17;92.00
48027;BME280;50714;49.208;5.364;2022-12-07T09:48:32;99713.94;;;4.20;91.63
48027;BME280;50714;49.208;5.364;2022-12-07T09:58:33;99716.59;;;4.20;91.49
48027;BME280;50714;49.208;5.364;2022-12-07T10:08:33;99710.94;;;4.23;90.88
48027;BME280;50714;49.208;5.364;2022-12-07T10:18:39;99703.28;;;4.28;91.41
48027;BME280;50714;49.208;5.364;2022-12-07T10:28:43;99687.34;;;4.44;91.13
48027;BME280;50714;49.208;5.364;2022-12-07T10:38:47;99678.63;;;4.76;90.43
48027;BME280;50714;49.208;5.364;2022-12-07T11:29:39;99618.81;;;4.86;88.09
48027;BME280;50714;49.208;5.364;2022-12-07T11:40:02;99617.31;;;4.83;88.40
48027;BME280;50714;49.208;5.364;2022-12-07T11:50:27;99606.44;;;4.85;89.70
48027;BME280;50714;49.208;5.364;2022-12-07T12:00:30;99612.59;;;4.77;88.17
48027;BME280;50714;49.208;5.364;2022-12-07T12:20:46;99578.75;;;5.34;88.80
48027;BME280;50714;49.208;5.364;2022-12-07T12:31:28;99575.50;;;5.71;87.42
48027;BME280;50714;49.208;5.364;2022-12-07T12:41:55;99566.81;;;5.77;85.91
48027;BME280;50714;49.208;5.364;2022-12-07T13:02:25;99553.13;;;5.48;86.46
48027;BME280;50714;49.208;5.364;2022-12-07T13:12:27;99552.50;;;5.30;86.34
48027;BME280;50714;49.208;5.364;2022-12-07T13:32:31;99522.88;;;5.23;87.02
48027;BME280;50714;49.208;5.364;2022-12-07T13:42:34;99517.53;;;5.23;86.68
48027;BME280;50714;49.208;5.364;2022-12-07T13:52:43;99499.97;;;5.21;86.22
48027;BME280;50714;49.208;5.364;2022-12-07T14:13:37;99491.31;;;5.10;85.96
48027;BME280;50714;49.208;5.364;2022-12-07T14:23:40;99487.28;;;4.98;85.23
48027;BME280;50714;49.208;5.364;2022-12-07T14:33:41;99478.94;;;5.01;85.26
48027;BME280;50714;49.208;5.364;2022-12-07T14:43:41;99491.16;;;4.96;86.01
48027;BME280;50714;49.208;5.364;2022-12-07T14:53:48;99485.28;;;4.84;85.35
48027;BME280;50714;49.208;5.364;2022-12-07T15:03:49;99501.84;;;4.79;85.49
48027;BME280;50714;49.208;5.364;2022-12-07T15:13:49;99496.47;;;4.79;85.99
48027;BME280;50714;49.208;5.364;2022-12-07T15:24:09;99480.47;;;4.71;85.92
48027;BME280;50714;49.208;5.364;2022-12-07T15:34:10;99478.78;;;4.70;86.19
48027;BME280;50714;49.208;5.364;2022-12-07T15:44:14;99467.25;;;4.70;86.56
48027;BME280;50714;49.208;5.364;2022-12-07T15:54:33;99457.06;;;4.65;86.81
48027;BME280;50714;49.208;5.364;2022-12-07T16:04:33;99459.72;;;4.65;86.63
48027;BME280;50714;49.208;5.364;2022-12-07T16:14:34;99445.53;;;4.65;86.80
48027;BME280;50714;49.208;5.364;2022-12-07T16:24:34;99436.16;;;4.61;87.07
48027;BME280;50714;49.208;5.364;2022-12-07T16:34:34;99439.34;;;4.64;87.48
48027;BME280;50714;49.208;5.364;2022-12-07T16:44:35;99433.84;;;4.66;87.86
48027;BME280;50714;49.208;5.364;2022-12-07T16:54:36;99435.50;;;4.59;87.37
48027;BME280;50714;49.208;5.364;2022-12-07T17:04:36;99426.66;;;4.58;86.95
48027;BME280;50714;49.208;5.364;2022-12-07T17:14:39;99424.63;;;4.52;87.27
48027;BME280;50714;49.208;5.364;2022-12-07T17:24:58;99410.44;;;4.52;87.38
48027;BME280;50714;49.208;5.364;2022-12-07T17:34:58;99404.41;;;4.50;87.21
48027;BME280;50714;49.208;5.364;2022-12-07T17:45:00;99394.25;;;4.45;88.73
48027;BME280;50714;49.208;5.364;2022-12-07T17:55:00;99392.72;;;4.51;89.30
48027;BME280;50714;49.208;5.364;2022-12-07T18:05:00;99381.22;;;4.42;88.97
48027;BME280;50714;49.208;5.364;2022-12-07T18:15:01;99384.72;;;4.34;89.06
48027;BME280;50714;49.208;5.364;2022-12-07T18:25:01;99378.03;;;4.38;89.03
48027;BME280;50714;49.208;5.364;2022-12-07T18:35:01;99373.38;;;4.32;89.11
48027;BME280;50714;49.208;5.364;2022-12-07T18:45:02;99354.84;;;4.39;89.97
48027;BME280;50714;49.208;5.364;2022-12-07T18:55:03;99356.84;;;4.45;90.15
48027;BME280;50714;49.208;5.364;2022-12-07T19:05:03;99351.84;;;4.42;89.74
48027;BME280;50714;49.208;5.364;2022-12-07T19:15:05;99347.81;;;4.46;90.19
48027;BME280;50714;49.208;5.364;2022-12-07T19:25:07;99350.50;;;4.46;90.38
48027;BME280;50714;49.208;5.364;2022-12-07T19:35:07;99346.28;;;4.52;90.61
48027;BME280;50714;49.208;5.364;2022-12-07T19:45:08;99340.78;;;4.53;91.13
48027;BME280;50714;49.208;5.364;2022-12-07T19:55:08;99344.00;;;4.49;90.63
48027;BME280;50714;49.208;5.364;2022-12-07T20:05:09;99337.94;;;4.55;91.39
48027;BME280;50714;49.208;5.364;2022-12-07T20:15:09;99333.28;;;4.57;90.98
48027;BME280;50714;49.208;5.364;2022-12-07T20:25:09;99314.41;;;4.58;90.71
48027;BME280;50714;49.208;5.364;2022-12-07T20:35:10;99311.22;;;4.63;91.25
48027;BME280;50714;49.208;5.364;2022-12-07T20:45:10;99302.19;;;4.64;91.57
48027;BME280;50714;49.208;5.364;2022-12-07T20:55:11;99291.69;;;4.62;91.20
48027;BME280;50714;49.208;5.364;2022-12-07T21:05:12;99284.81;;;4.68;91.40
48027;BME280;50714;49.208;5.364;2022-12-07T21:15:12;99275.63;;;4.70;91.54
48027;BME280;50714;49.208;5.364;2022-12-07T21:25:13;99270.47;;;4.69;91.75
48027;BME280;50714;49.208;5.364;2022-12-07T21:35:13;99268.44;;;4.71;90.99
48027;BME280;50714;49.208;5.364;2022-12-07T21:45:14;99261.06;;;4.73;91.14
48027;BME280;50714;49.208;5.364;2022-12-07T21:55:14;99250.91;;;4.68;91.22
48027;BME280;50714;49.208;5.364;2022-12-07T22:05:15;99247.56;;;4.66;90.96
48027;BME280;50714;49.208;5.364;2022-12-07T22:15:15;99236.53;;;4.69;90.93
48027;BME280;50714;49.208;5.364;2022-12-07T22:25:16;99234.38;;;4.65;90.79
48027;BME280;50714;49.208;5.364;2022-12-07T22:35:16;99227.03;;;4.67;91.04
48027;BME280;50714;49.208;5.364;2022-12-07T22:45:17;99219.84;;;4.67;90.32
48027;BME280;50714;49.208;5.364;2022-12-07T22:55:17;99200.28;;;4.67;90.76
48027;BME280;50714;49.208;5.364;2022-12-07T23:05:17;99191.13;;;4.61;90.43
48027;BME280;50714;49.208;5.364;2022-12-07T23:15:18;99193.78;;;4.61;90.97
48027;BME280;50714;49.208;5.364;2022-12-07T23:25:18;99199.47;;;4.58;90.79
48027;BME280;50714;49.208;5.364;2022-12-07T23:35:19;99184.44;;;4.57;90.95
48027;BME280;50714;49.208;5.364;2022-12-07T23:45:19;99177.25;;;4.58;91.47
48027;BME280;50714;49.208;5.364;2022-12-07T23:55:20;99169.41;;;4.56;91.16
